aviador You're here:

SUMU Decoded Metar

MONTEVIDEO in URUGUAY
Report Time2017-10-20 12:00:00
UTC Time2017-10-20 12:30:16
Flight Rules vfr VFR
Wind010° at 13 kt
W.Decomp.*RWY 01: 12.8 kt HW 2.0 kt RCW
RWY 06: 9.8 kt HW 8.5 kt LCW
W.Rank010° ranks 2
Current wind is above 010° avg. (7.0)
Visibility9999 m
Phenomena:N/A
Clouds:N/A
Expected CloudBase > 3,200 ft AGL from Temp-Dew spread
CeilingNone
Temp13°C (ISA -2)
Dew Point05°C (59% RH)
AAT7.2°C
QNH1016 hPa
Density Alt-89 ft
Elevation105 ft
Report Wrong Elevation
Raw Report
METAR SUMU 201200Z 01013KT CAVOK 13/05 Q1016 NOSIG=

Extra information for SUMU:More info

Metar Taf Metar & Taf Last 4 Metars F.Rules Stats Wind Profile Meteogram Temp Stats Airport Information Weather charts Add Link Nearby VenuesMetar ALERT Operation Metar Decoded Social comments